sensor_id;sensor_type;location;lat;lon;timestamp;P1;durP1;ratioP1;P2;durP2;ratioP2
21233;SDS011;10774;42.178;26.578;2023-02-23T00:00:10;21.30;;;12.40;;
21233;SDS011;10774;42.178;26.578;2023-02-23T00:02:45;17.27;;;10.27;;
21233;SDS011;10774;42.178;26.578;2023-02-23T00:05:14;18.42;;;11.05;;
21233;SDS011;10774;42.178;26.578;2023-02-23T00:07:42;15.38;;;10.95;;
21233;SDS011;10774;42.178;26.578;2023-02-23T00:10:09;16.88;;;11.40;;
21233;SDS011;10774;42.178;26.578;2023-02-23T00:12:37;18.08;;;11.38;;
21233;SDS011;10774;42.178;26.578;2023-02-23T00:15:02;17.33;;;11.40;;
21233;SDS011;10774;42.178;26.578;2023-02-23T00:17:28;15.88;;;10.45;;
21233;SDS011;10774;42.178;26.578;2023-02-23T00:19:55;17.58;;;11.38;;
21233;SDS011;10774;42.178;26.578;2023-02-23T00:22:23;15.25;;;10.02;;
21233;SDS011;10774;42.178;26.578;2023-02-23T00:24:49;13.77;;;10.00;;
21233;SDS011;10774;42.178;26.578;2023-02-23T00:27:14;16.35;;;8.90;;
21233;SDS011;10774;42.178;26.578;2023-02-23T00:29:44;16.63;;;10.48;;
21233;SDS011;10774;42.178;26.578;2023-02-23T00:32:13;13.63;;;9.70;;
21233;SDS011;10774;42.178;26.578;2023-02-23T00:34:43;13.20;;;9.63;;
21233;SDS011;10774;42.178;26.578;2023-02-23T00:37:09;17.08;;;10.02;;
21233;SDS011;10774;42.178;26.578;2023-02-23T00:39:36;15.57;;;10.77;;
21233;SDS011;10774;42.178;26.578;2023-02-23T00:42:02;18.60;;;10.23;;
21233;SDS011;10774;42.178;26.578;2023-02-23T00:44:30;14.75;;;10.13;;
21233;SDS011;10774;42.178;26.578;2023-02-23T00:46:57;19.13;;;11.10;;
21233;SDS011;10774;42.178;26.578;2023-02-23T00:49:24;20.92;;;12.52;;
21233;SDS011;10774;42.178;26.578;2023-02-23T00:51:50;18.45;;;13.20;;
21233;SDS011;10774;42.178;26.578;2023-02-23T00:54:16;18.08;;;14.70;;
21233;SDS011;10774;42.178;26.578;2023-02-23T00:56:42;23.40;;;16.23;;
21233;SDS011;10774;42.178;26.578;2023-02-23T00:59:07;30.67;;;18.92;;
21233;SDS011;10774;42.178;26.578;2023-02-23T01:04:04;25.77;;;19.17;;
21233;SDS011;10774;42.178;26.578;2023-02-23T01:06:31;25.50;;;18.35;;
21233;SDS011;10774;42.178;26.578;2023-02-23T01:08:56;22.77;;;17.40;;
21233;SDS011;10774;42.178;26.578;2023-02-23T01:11:23;23.50;;;16.88;;
21233;SDS011;10774;42.178;26.578;2023-02-23T01:13:52;25.52;;;17.50;;
21233;SDS011;10774;42.178;26.578;2023-02-23T01:16:21;26.75;;;15.95;;
21233;SDS011;10774;42.178;26.578;2023-02-23T01:18:52;23.13;;;15.35;;
21233;SDS011;10774;42.178;26.578;2023-02-23T01:21:19;17.60;;;11.85;;
21233;SDS011;10774;42.178;26.578;2023-02-23T01:23:47;19.73;;;12.18;;
21233;SDS011;10774;42.178;26.578;2023-02-23T01:26:16;17.70;;;11.15;;
21233;SDS011;10774;42.178;26.578;2023-02-23T01:28:50;18.15;;;10.65;;
21233;SDS011;10774;42.178;26.578;2023-02-23T01:31:18;12.45;;;9.45;;
21233;SDS011;10774;42.178;26.578;2023-02-23T01:33:44;14.95;;;9.80;;
21233;SDS011;10774;42.178;26.578;2023-02-23T01:36:10;13.82;;;10.07;;
21233;SDS011;10774;42.178;26.578;2023-02-23T01:38:37;13.73;;;9.93;;
21233;SDS011;10774;42.178;26.578;2023-02-23T01:41:02;13.32;;;9.60;;
21233;SDS011;10774;42.178;26.578;2023-02-23T01:43:28;15.50;;;9.70;;
21233;SDS011;10774;42.178;26.578;2023-02-23T01:45:54;14.88;;;9.35;;
21233;SDS011;10774;42.178;26.578;2023-02-23T01:48:29;15.35;;;9.80;;
21233;SDS011;10774;42.178;26.578;2023-02-23T01:51:00;15.25;;;9.23;;
21233;SDS011;10774;42.178;26.578;2023-02-23T01:53:39;13.90;;;8.95;;
21233;SDS011;10774;42.178;26.578;2023-02-23T01:56:18;13.07;;;8.80;;
21233;SDS011;10774;42.178;26.578;2023-02-23T01:58:49;14.05;;;8.50;;
21233;SDS011;10774;42.178;26.578;2023-02-23T02:01:16;13.20;;;9.15;;
21233;SDS011;10774;42.178;26.578;2023-02-23T02:03:46;12.88;;;9.18;;
21233;SDS011;10774;42.178;26.578;2023-02-23T02:06:15;12.77;;;8.38;;
21233;SDS011;10774;42.178;26.578;2023-02-23T02:08:44;14.52;;;9.07;;
21233;SDS011;10774;42.178;26.578;2023-02-23T02:11:18;13.20;;;9.00;;
21233;SDS011;10774;42.178;26.578;2023-02-23T02:14:10;10.57;;;7.95;;
21233;SDS011;10774;42.178;26.578;2023-02-23T02:42:09;16.48;;;10.82;;
21233;SDS011;10774;42.178;26.578;2023-02-23T02:47:54;18.70;;;10.27;;
21233;SDS011;10774;42.178;26.578;2023-02-23T02:50:35;17.45;;;10.10;;
21233;SDS011;10774;42.178;26.578;2023-02-23T02:53:07;16.17;;;9.85;;
21233;SDS011;10774;42.178;26.578;2023-02-23T02:55:38;15.57;;;9.52;;
21233;SDS011;10774;42.178;26.578;2023-02-23T02:58:08;17.10;;;10.85;;
21233;SDS011;10774;42.178;26.578;2023-02-23T03:00:42;20.95;;;11.68;;
21233;SDS011;10774;42.178;26.578;2023-02-23T03:03:40;20.17;;;12.95;;
21233;SDS011;10774;42.178;26.578;2023-02-23T03:06:33;22.65;;;13.18;;
21233;SDS011;10774;42.178;26.578;2023-02-23T03:19:38;18.30;;;11.45;;
21233;SDS011;10774;42.178;26.578;2023-02-23T03:22:25;18.90;;;11.35;;
21233;SDS011;10774;42.178;26.578;2023-02-23T03:25:23;17.42;;;10.00;;
21233;SDS011;10774;42.178;26.578;2023-02-23T03:28:16;19.92;;;11.75;;
21233;SDS011;10774;42.178;26.578;2023-02-23T03:34:11;22.27;;;12.80;;
21233;SDS011;10774;42.178;26.578;2023-02-23T03:37:10;25.95;;;14.02;;
21233;SDS011;10774;42.178;26.578;2023-02-23T03:40:05;28.30;;;14.45;;
21233;SDS011;10774;42.178;26.578;2023-02-23T03:42:55;26.15;;;14.00;;
21233;SDS011;10774;42.178;26.578;2023-02-23T03:45:42;24.20;;;13.98;;
21233;SDS011;10774;42.178;26.578;2023-02-23T03:48:29;28.30;;;13.68;;
21233;SDS011;10774;42.178;26.578;2023-02-23T03:51:16;23.92;;;13.02;;
21233;SDS011;10774;42.178;26.578;2023-02-23T03:54:07;25.05;;;13.50;;
21233;SDS011;10774;42.178;26.578;2023-02-23T03:56:58;23.30;;;14.40;;
21233;SDS011;10774;42.178;26.578;2023-02-23T03:59:51;24.75;;;13.68;;
21233;SDS011;10774;42.178;26.578;2023-02-23T04:02:39;23.00;;;14.82;;
21233;SDS011;10774;42.178;26.578;2023-02-23T04:05:25;28.23;;;15.65;;
21233;SDS011;10774;42.178;26.578;2023-02-23T04:08:12;25.35;;;15.15;;
21233;SDS011;10774;42.178;26.578;2023-02-23T04:11:01;30.30;;;15.95;;
21233;SDS011;10774;42.178;26.578;2023-02-23T04:13:59;29.67;;;15.20;;
21233;SDS011;10774;42.178;26.578;2023-02-23T04:16:28;24.38;;;15.07;;
21233;SDS011;10774;42.178;26.578;2023-02-23T04:18:56;23.80;;;13.95;;
21233;SDS011;10774;42.178;26.578;2023-02-23T04:21:22;27.95;;;14.88;;
21233;SDS011;10774;42.178;26.578;2023-02-23T04:23:47;23.65;;;13.77;;
21233;SDS011;10774;42.178;26.578;2023-02-23T04:26:13;24.70;;;15.10;;
21233;SDS011;10774;42.178;26.578;2023-02-23T04:28:38;23.02;;;12.45;;
21233;SDS011;10774;42.178;26.578;2023-02-23T04:31:04;24.73;;;13.18;;
21233;SDS011;10774;42.178;26.578;2023-02-23T04:33:29;28.15;;;13.38;;
21233;SDS011;10774;42.178;26.578;2023-02-23T04:35:55;23.67;;;14.35;;
21233;SDS011;10774;42.178;26.578;2023-02-23T04:38:21;21.70;;;12.75;;
21233;SDS011;10774;42.178;26.578;2023-02-23T04:40:47;23.05;;;13.63;;
21233;SDS011;10774;42.178;26.578;2023-02-23T04:43:15;23.90;;;12.95;;
21233;SDS011;10774;42.178;26.578;2023-02-23T04:45:41;20.85;;;13.18;;
21233;SDS011;10774;42.178;26.578;2023-02-23T04:48:08;22.00;;;12.98;;
21233;SDS011;10774;42.178;26.578;2023-02-23T04:50:33;22.88;;;13.32;;
21233;SDS011;10774;42.178;26.578;2023-02-23T04:52:59;21.00;;;13.60;;
21233;SDS011;10774;42.178;26.578;2023-02-23T04:55:24;35.15;;;17.23;;
21233;SDS011;10774;42.178;26.578;2023-02-23T04:57:51;53.63;;;33.60;;
21233;SDS011;10774;42.178;26.578;2023-02-23T05:00:21;34.15;;;23.23;;
21233;SDS011;10774;42.178;26.578;2023-02-23T05:02:47;22.50;;;12.80;;
21233;SDS011;10774;42.178;26.578;2023-02-23T05:05:12;27.35;;;13.85;;
21233;SDS011;10774;42.178;26.578;2023-02-23T05:10:29;26.27;;;15.13;;
21233;SDS011;10774;42.178;26.578;2023-02-23T05:12:54;24.05;;;15.70;;
21233;SDS011;10774;42.178;26.578;2023-02-23T05:15:29;21.48;;;13.18;;
21233;SDS011;10774;42.178;26.578;2023-02-23T05:17:55;23.98;;;10.90;;
21233;SDS011;10774;42.178;26.578;2023-02-23T05:20:21;29.10;;;16.02;;
21233;SDS011;10774;42.178;26.578;2023-02-23T05:22:46;26.42;;;15.20;;
21233;SDS011;10774;42.178;26.578;2023-02-23T05:25:12;33.13;;;19.90;;
21233;SDS011;10774;42.178;26.578;2023-02-23T05:27:38;28.60;;;18.17;;
21233;SDS011;10774;42.178;26.578;2023-02-23T05:30:04;25.52;;;17.73;;
21233;SDS011;10774;42.178;26.578;2023-02-23T05:32:32;19.92;;;14.75;;
21233;SDS011;10774;42.178;26.578;2023-02-23T05:34:58;20.65;;;14.27;;
21233;SDS011;10774;42.178;26.578;2023-02-23T05:37:24;24.58;;;15.45;;
21233;SDS011;10774;42.178;26.578;2023-02-23T05:39:50;30.33;;;17.13;;
21233;SDS011;10774;42.178;26.578;2023-02-23T05:42:15;32.58;;;17.70;;
21233;SDS011;10774;42.178;26.578;2023-02-23T05:44:41;27.52;;;16.35;;
21233;SDS011;10774;42.178;26.578;2023-02-23T05:47:06;31.80;;;20.75;;
21233;SDS011;10774;42.178;26.578;2023-02-23T05:49:32;32.80;;;21.83;;
21233;SDS011;10774;42.178;26.578;2023-02-23T05:51:57;29.65;;;19.05;;
21233;SDS011;10774;42.178;26.578;2023-02-23T05:54:22;30.10;;;17.35;;
21233;SDS011;10774;42.178;26.578;2023-02-23T05:56:48;20.77;;;13.40;;
21233;SDS011;10774;42.178;26.578;2023-02-23T05:59:14;27.10;;;15.55;;
21233;SDS011;10774;42.178;26.578;2023-02-23T06:01:41;24.27;;;14.68;;
21233;SDS011;10774;42.178;26.578;2023-02-23T06:04:07;21.35;;;12.50;;
21233;SDS011;10774;42.178;26.578;2023-02-23T06:06:33;19.50;;;12.88;;
21233;SDS011;10774;42.178;26.578;2023-02-23T06:08:58;30.30;;;18.90;;
21233;SDS011;10774;42.178;26.578;2023-02-23T06:11:24;35.03;;;22.08;;
21233;SDS011;10774;42.178;26.578;2023-02-23T06:13:49;34.58;;;21.15;;
21233;SDS011;10774;42.178;26.578;2023-02-23T06:16:16;41.00;;;24.55;;
21233;SDS011;10774;42.178;26.578;2023-02-23T06:18:41;29.85;;;18.20;;
21233;SDS011;10774;42.178;26.578;2023-02-23T06:21:07;33.33;;;14.75;;
21233;SDS011;10774;42.178;26.578;2023-02-23T06:23:32;19.63;;;11.75;;
21233;SDS011;10774;42.178;26.578;2023-02-23T06:25:58;33.88;;;14.45;;
21233;SDS011;10774;42.178;26.578;2023-02-23T06:28:24;23.90;;;11.70;;
21233;SDS011;10774;42.178;26.578;2023-02-23T06:30:51;20.27;;;11.98;;
21233;SDS011;10774;42.178;26.578;2023-02-23T06:33:17;24.75;;;15.43;;
21233;SDS011;10774;42.178;26.578;2023-02-23T06:35:42;51.63;;;32.63;;
21233;SDS011;10774;42.178;26.578;2023-02-23T06:38:08;53.33;;;34.90;;
21233;SDS011;10774;42.178;26.578;2023-02-23T06:40:33;51.63;;;34.90;;
21233;SDS011;10774;42.178;26.578;2023-02-23T06:42:58;34.72;;;25.48;;
21233;SDS011;10774;42.178;26.578;2023-02-23T06:45:24;30.63;;;19.33;;
21233;SDS011;10774;42.178;26.578;2023-02-23T06:47:50;29.80;;;18.23;;
21233;SDS011;10774;42.178;26.578;2023-02-23T06:50:17;20.10;;;13.73;;
21233;SDS011;10774;42.178;26.578;2023-02-23T06:52:43;18.95;;;13.27;;
21233;SDS011;10774;42.178;26.578;2023-02-23T06:55:09;33.30;;;20.23;;
21233;SDS011;10774;42.178;26.578;2023-02-23T06:57:35;30.25;;;20.00;;
21233;SDS011;10774;42.178;26.578;2023-02-23T07:00:00;22.40;;;14.85;;
21233;SDS011;10774;42.178;26.578;2023-02-23T07:02:26;18.05;;;13.73;;
21233;SDS011;10774;42.178;26.578;2023-02-23T07:04:52;18.02;;;13.25;;
21233;SDS011;10774;42.178;26.578;2023-02-23T07:07:17;18.45;;;13.00;;
21233;SDS011;10774;42.178;26.578;2023-02-23T07:09:42;20.10;;;13.05;;
21233;SDS011;10774;42.178;26.578;2023-02-23T07:12:08;12.85;;;9.63;;
21233;SDS011;10774;42.178;26.578;2023-02-23T07:14:34;15.23;;;11.93;;
21233;SDS011;10774;42.178;26.578;2023-02-23T07:17:00;13.23;;;9.82;;
21233;SDS011;10774;42.178;26.578;2023-02-23T07:19:25;15.35;;;10.75;;
21233;SDS011;10774;42.178;26.578;2023-02-23T07:21:51;24.52;;;15.13;;
21233;SDS011;10774;42.178;26.578;2023-02-23T07:24:17;19.40;;;12.32;;
21233;SDS011;10774;42.178;26.578;2023-02-23T07:26:43;15.00;;;9.90;;
21233;SDS011;10774;42.178;26.578;2023-02-23T07:29:11;15.50;;;10.75;;
21233;SDS011;10774;42.178;26.578;2023-02-23T07:31:37;16.65;;;9.90;;
21233;SDS011;10774;42.178;26.578;2023-02-23T07:34:03;13.10;;;8.60;;
21233;SDS011;10774;42.178;26.578;2023-02-23T07:36:29;15.57;;;9.38;;
21233;SDS011;10774;42.178;26.578;2023-02-23T07:38:54;11.43;;;8.80;;
21233;SDS011;10774;42.178;26.578;2023-02-23T07:41:20;12.07;;;9.35;;
21233;SDS011;10774;42.178;26.578;2023-02-23T07:43:46;14.07;;;9.07;;
21233;SDS011;10774;42.178;26.578;2023-02-23T07:46:11;18.27;;;12.60;;
21233;SDS011;10774;42.178;26.578;2023-02-23T07:48:39;12.80;;;8.60;;
21233;SDS011;10774;42.178;26.578;2023-02-23T07:51:12;20.98;;;12.07;;
21233;SDS011;10774;42.178;26.578;2023-02-23T07:53:39;19.35;;;11.80;;
21233;SDS011;10774;42.178;26.578;2023-02-23T07:56:06;16.80;;;9.00;;
21233;SDS011;10774;42.178;26.578;2023-02-23T07:58:34;10.95;;;7.03;;
21233;SDS011;10774;42.178;26.578;2023-02-23T08:00:59;9.32;;;6.20;;
21233;SDS011;10774;42.178;26.578;2023-02-23T08:03:25;7.88;;;6.07;;
21233;SDS011;10774;42.178;26.578;2023-02-23T08:05:51;9.15;;;6.20;;
21233;SDS011;10774;42.178;26.578;2023-02-23T08:08:17;13.90;;;7.50;;
21233;SDS011;10774;42.178;26.578;2023-02-23T08:10:42;10.52;;;7.13;;
21233;SDS011;10774;42.178;26.578;2023-02-23T08:13:07;12.45;;;8.43;;
21233;SDS011;10774;42.178;26.578;2023-02-23T08:15:33;16.00;;;8.38;;
21233;SDS011;10774;42.178;26.578;2023-02-23T08:17:58;13.27;;;8.48;;
21233;SDS011;10774;42.178;26.578;2023-02-23T08:20:24;23.92;;;13.82;;
21233;SDS011;10774;42.178;26.578;2023-02-23T08:22:56;19.50;;;13.02;;
21233;SDS011;10774;42.178;26.578;2023-02-23T08:25:23;18.23;;;11.27;;
21233;SDS011;10774;42.178;26.578;2023-02-23T08:27:49;19.85;;;12.10;;
21233;SDS011;10774;42.178;26.578;2023-02-23T08:30:18;19.67;;;12.98;;
21233;SDS011;10774;42.178;26.578;2023-02-23T08:32:48;18.58;;;11.57;;
21233;SDS011;10774;42.178;26.578;2023-02-23T08:35:14;30.90;;;16.20;;
21233;SDS011;10774;42.178;26.578;2023-02-23T08:37:40;62.38;;;42.13;;
21233;SDS011;10774;42.178;26.578;2023-02-23T08:40:06;27.75;;;16.55;;
21233;SDS011;10774;42.178;26.578;2023-02-23T08:42:32;18.83;;;13.25;;
21233;SDS011;10774;42.178;26.578;2023-02-23T08:44:58;22.75;;;14.55;;
21233;SDS011;10774;42.178;26.578;2023-02-23T08:47:25;23.40;;;14.13;;
21233;SDS011;10774;42.178;26.578;2023-02-23T08:49:51;25.05;;;13.40;;
21233;SDS011;10774;42.178;26.578;2023-02-23T08:52:18;24.52;;;15.18;;
21233;SDS011;10774;42.178;26.578;2023-02-23T08:54:44;33.78;;;19.00;;
21233;SDS011;10774;42.178;26.578;2023-02-23T08:57:10;30.67;;;16.95;;
21233;SDS011;10774;42.178;26.578;2023-02-23T08:59:36;26.38;;;17.13;;
21233;SDS011;10774;42.178;26.578;2023-02-23T09:02:03;40.03;;;21.27;;
21233;SDS011;10774;42.178;26.578;2023-02-23T09:04:32;30.42;;;18.33;;
21233;SDS011;10774;42.178;26.578;2023-02-23T09:07:01;34.70;;;21.40;;
21233;SDS011;10774;42.178;26.578;2023-02-23T09:09:27;33.85;;;21.58;;
21233;SDS011;10774;42.178;26.578;2023-02-23T09:11:52;34.80;;;21.17;;
21233;SDS011;10774;42.178;26.578;2023-02-23T09:14:18;33.60;;;18.30;;
21233;SDS011;10774;42.178;26.578;2023-02-23T09:16:44;22.92;;;14.20;;
21233;SDS011;10774;42.178;26.578;2023-02-23T09:19:11;25.88;;;13.45;;
21233;SDS011;10774;42.178;26.578;2023-02-23T09:21:36;21.38;;;13.88;;
21233;SDS011;10774;42.178;26.578;2023-02-23T09:24:02;33.42;;;18.58;;
21233;SDS011;10774;42.178;26.578;2023-02-23T09:26:27;39.92;;;27.65;;
21233;SDS011;10774;42.178;26.578;2023-02-23T09:28:53;28.48;;;17.98;;
21233;SDS011;10774;42.178;26.578;2023-02-23T09:31:21;24.40;;;16.25;;
21233;SDS011;10774;42.178;26.578;2023-02-23T09:33:48;25.08;;;15.90;;
21233;SDS011;10774;42.178;26.578;2023-02-23T09:36:15;30.00;;;16.92;;
21233;SDS011;10774;42.178;26.578;2023-02-23T09:38:42;30.40;;;15.90;;
21233;SDS011;10774;42.178;26.578;2023-02-23T09:47:00;25.85;;;18.63;;
21233;SDS011;10774;42.178;26.578;2023-02-23T09:49:37;24.92;;;15.35;;
21233;SDS011;10774;42.178;26.578;2023-02-23T09:52:09;20.80;;;13.90;;
21233;SDS011;10774;42.178;26.578;2023-02-23T09:54:41;22.38;;;13.98;;
21233;SDS011;10774;42.178;26.578;2023-02-23T09:57:10;24.67;;;16.52;;
21233;SDS011;10774;42.178;26.578;2023-02-23T09:59:43;28.75;;;15.27;;
21233;SDS011;10774;42.178;26.578;2023-02-23T10:05:03;28.52;;;17.20;;
21233;SDS011;10774;42.178;26.578;2023-02-23T10:10:24;62.30;;;33.80;;
21233;SDS011;10774;42.178;26.578;2023-02-23T10:18:52;37.25;;;20.88;;
21233;SDS011;10774;42.178;26.578;2023-02-23T10:24:11;26.90;;;16.55;;
21233;SDS011;10774;42.178;26.578;2023-02-23T10:27:06;26.20;;;14.82;;
21233;SDS011;10774;42.178;26.578;2023-02-23T10:29:44;23.33;;;16.65;;
21233;SDS011;10774;42.178;26.578;2023-02-23T10:32:23;21.58;;;16.25;;
21233;SDS011;10774;42.178;26.578;2023-02-23T10:34:52;57.00;;;37.88;;
21233;SDS011;10774;42.178;26.578;2023-02-23T10:37:20;27.45;;;18.10;;
21233;SDS011;10774;42.178;26.578;2023-02-23T10:39:46;24.08;;;15.57;;
21233;SDS011;10774;42.178;26.578;2023-02-23T10:42:16;23.83;;;17.35;;
21233;SDS011;10774;42.178;26.578;2023-02-23T10:44:52;30.63;;;18.88;;
21233;SDS011;10774;42.178;26.578;2023-02-23T10:47:19;27.20;;;18.02;;
21233;SDS011;10774;42.178;26.578;2023-02-23T10:49:50;21.88;;;14.82;;
21233;SDS011;10774;42.178;26.578;2023-02-23T10:52:20;21.65;;;14.32;;
21233;SDS011;10774;42.178;26.578;2023-02-23T10:54:47;21.70;;;16.05;;
21233;SDS011;10774;42.178;26.578;2023-02-23T10:57:19;25.73;;;15.85;;
21233;SDS011;10774;42.178;26.578;2023-02-23T11:02:27;17.73;;;11.32;;
21233;SDS011;10774;42.178;26.578;2023-02-23T11:04:58;28.50;;;18.38;;
21233;SDS011;10774;42.178;26.578;2023-02-23T11:07:28;30.23;;;19.65;;
21233;SDS011;10774;42.178;26.578;2023-02-23T11:09:56;26.63;;;14.93;;
21233;SDS011;10774;42.178;26.578;2023-02-23T11:18:00;24.75;;;16.52;;
21233;SDS011;10774;42.178;26.578;2023-02-23T11:20:38;17.88;;;10.55;;
21233;SDS011;10774;42.178;26.578;2023-02-23T11:23:15;25.65;;;15.18;;
21233;SDS011;10774;42.178;26.578;2023-02-23T11:25:42;19.63;;;13.35;;
21233;SDS011;10774;42.178;26.578;2023-02-23T11:28:19;26.38;;;14.90;;
21233;SDS011;10774;42.178;26.578;2023-02-23T11:30:48;22.83;;;16.70;;
21233;SDS011;10774;42.178;26.578;2023-02-23T11:33:16;21.50;;;14.48;;
21233;SDS011;10774;42.178;26.578;2023-02-23T11:35:45;22.88;;;15.50;;
21233;SDS011;10774;42.178;26.578;2023-02-23T11:40:57;18.48;;;13.27;;
21233;SDS011;10774;42.178;26.578;2023-02-23T11:43:27;21.73;;;14.88;;
21233;SDS011;10774;42.178;26.578;2023-02-23T11:45:55;19.73;;;14.18;;
21233;SDS011;10774;42.178;26.578;2023-02-23T11:48:27;22.65;;;14.90;;
21233;SDS011;10774;42.178;26.578;2023-02-23T11:50:53;17.80;;;11.43;;
21233;SDS011;10774;42.178;26.578;2023-02-23T11:53:25;15.45;;;10.60;;
21233;SDS011;10774;42.178;26.578;2023-02-23T11:56:04;21.60;;;13.23;;
21233;SDS011;10774;42.178;26.578;2023-02-23T11:58:43;19.83;;;12.40;;
21233;SDS011;10774;42.178;26.578;2023-02-23T12:03:41;20.38;;;12.77;;
21233;SDS011;10774;42.178;26.578;2023-02-23T12:06:14;17.02;;;10.82;;
21233;SDS011;10774;42.178;26.578;2023-02-23T12:08:55;15.02;;;9.57;;
21233;SDS011;10774;42.178;26.578;2023-02-23T12:11:30;16.77;;;10.73;;
21233;SDS011;10774;42.178;26.578;2023-02-23T12:17:11;19.40;;;9.68;;
21233;SDS011;10774;42.178;26.578;2023-02-23T12:19:44;14.82;;;9.00;;
21233;SDS011;10774;42.178;26.578;2023-02-23T12:22:17;13.55;;;7.55;;
21233;SDS011;10774;42.178;26.578;2023-02-23T12:24:48;17.10;;;10.30;;
21233;SDS011;10774;42.178;26.578;2023-02-23T12:27:36;15.60;;;8.25;;
21233;SDS011;10774;42.178;26.578;2023-02-23T12:38:04;18.80;;;11.00;;
21233;SDS011;10774;42.178;26.578;2023-02-23T12:40:41;17.80;;;9.52;;
21233;SDS011;10774;42.178;26.578;2023-02-23T12:45:55;18.05;;;10.98;;
21233;SDS011;10774;42.178;26.578;2023-02-23T12:48:31;17.02;;;11.10;;
21233;SDS011;10774;42.178;26.578;2023-02-23T12:51:11;14.05;;;9.43;;
21233;SDS011;10774;42.178;26.578;2023-02-23T12:53:58;19.10;;;9.90;;
21233;SDS011;10774;42.178;26.578;2023-02-23T12:56:32;12.50;;;8.20;;
21233;SDS011;10774;42.178;26.578;2023-02-23T13:09:51;16.05;;;8.23;;
21233;SDS011;10774;42.178;26.578;2023-02-23T13:19:57;14.23;;;8.63;;
21233;SDS011;10774;42.178;26.578;2023-02-23T13:28:08;12.48;;;6.32;;
21233;SDS011;10774;42.178;26.578;2023-02-23T13:30:41;18.63;;;8.75;;
21233;SDS011;10774;42.178;26.578;2023-02-23T13:33:18;19.58;;;10.02;;
21233;SDS011;10774;42.178;26.578;2023-02-23T13:35:51;20.30;;;11.52;;
21233;SDS011;10774;42.178;26.578;2023-02-23T13:38:22;18.58;;;10.15;;
21233;SDS011;10774;42.178;26.578;2023-02-23T13:43:45;15.07;;;8.05;;
21233;SDS011;10774;42.178;26.578;2023-02-23T13:46:33;19.90;;;9.45;;
21233;SDS011;10774;42.178;26.578;2023-02-23T13:54:45;26.43;;;12.43;;
21233;SDS011;10774;42.178;26.578;2023-02-23T13:57:17;29.40;;;13.07;;
21233;SDS011;10774;42.178;26.578;2023-02-23T13:59:43;45.05;;;19.98;;
21233;SDS011;10774;42.178;26.578;2023-02-23T14:07:31;20.88;;;10.98;;
21233;SDS011;10774;42.178;26.578;2023-02-23T14:10:07;19.77;;;10.98;;
21233;SDS011;10774;42.178;26.578;2023-02-23T14:12:41;20.08;;;10.00;;
21233;SDS011;10774;42.178;26.578;2023-02-23T14:18:26;23.35;;;10.50;;
21233;SDS011;10774;42.178;26.578;2023-02-23T14:21:16;17.33;;;8.77;;
21233;SDS011;10774;42.178;26.578;2023-02-23T14:26:42;18.63;;;8.10;;
21233;SDS011;10774;42.178;26.578;2023-02-23T14:31:54;15.48;;;6.53;;
21233;SDS011;10774;42.178;26.578;2023-02-23T14:34:40;14.63;;;5.47;;
21233;SDS011;10774;42.178;26.578;2023-02-23T14:37:50;18.60;;;7.73;;
21233;SDS011;10774;42.178;26.578;2023-02-23T14:40:23;19.02;;;7.95;;
21233;SDS011;10774;42.178;26.578;2023-02-23T14:42:56;12.77;;;5.90;;
21233;SDS011;10774;42.178;26.578;2023-02-23T14:48:00;25.50;;;10.38;;
21233;SDS011;10774;42.178;26.578;2023-02-23T14:50:30;15.02;;;7.57;;
21233;SDS011;10774;42.178;26.578;2023-02-23T14:52:58;18.33;;;7.72;;
21233;SDS011;10774;42.178;26.578;2023-02-23T14:55:30;33.65;;;10.90;;
21233;SDS011;10774;42.178;26.578;2023-02-23T14:57:59;25.58;;;11.65;;
21233;SDS011;10774;42.178;26.578;2023-02-23T15:00:27;23.00;;;10.95;;
21233;SDS011;10774;42.178;26.578;2023-02-23T15:05:33;21.60;;;10.10;;
21233;SDS011;10774;42.178;26.578;2023-02-23T15:08:05;19.15;;;8.30;;
21233;SDS011;10774;42.178;26.578;2023-02-23T15:10:39;16.45;;;7.60;;
21233;SDS011;10774;42.178;26.578;2023-02-23T15:13:28;18.73;;;11.40;;
21233;SDS011;10774;42.178;26.578;2023-02-23T15:16:40;16.38;;;7.82;;
21233;SDS011;10774;42.178;26.578;2023-02-23T15:18:56;19.83;;;9.25;;
21233;SDS011;10774;42.178;26.578;2023-02-23T15:21:24;21.17;;;9.23;;
21233;SDS011;10774;42.178;26.578;2023-02-23T15:23:51;17.13;;;7.72;;
21233;SDS011;10774;42.178;26.578;2023-02-23T15:31:35;17.35;;;10.45;;
21233;SDS011;10774;42.178;26.578;2023-02-23T15:34:06;21.15;;;10.20;;
21233;SDS011;10774;42.178;26.578;2023-02-23T15:36:34;22.15;;;13.32;;
21233;SDS011;10774;42.178;26.578;2023-02-23T15:39:04;14.52;;;10.70;;
21233;SDS011;10774;42.178;26.578;2023-02-23T15:41:33;18.27;;;10.18;;
21233;SDS011;10774;42.178;26.578;2023-02-23T15:44:06;17.77;;;8.32;;
21233;SDS011;10774;42.178;26.578;2023-02-23T15:46:36;14.88;;;7.80;;
21233;SDS011;10774;42.178;26.578;2023-02-23T15:49:03;13.82;;;6.65;;
21233;SDS011;10774;42.178;26.578;2023-02-23T15:51:37;11.05;;;6.47;;
21233;SDS011;10774;42.178;26.578;2023-02-23T15:54:31;18.65;;;8.48;;
21233;SDS011;10774;42.178;26.578;2023-02-23T15:57:13;20.25;;;10.38;;
21233;SDS011;10774;42.178;26.578;2023-02-23T15:59:47;16.98;;;9.13;;
21233;SDS011;10774;42.178;26.578;2023-02-23T16:02:16;24.88;;;11.05;;
21233;SDS011;10774;42.178;26.578;2023-02-23T16:04:44;35.17;;;16.40;;
21233;SDS011;10774;42.178;26.578;2023-02-23T16:15:45;17.17;;;7.85;;
21233;SDS011;10774;42.178;26.578;2023-02-23T16:17:57;20.73;;;10.27;;
21233;SDS011;10774;42.178;26.578;2023-02-23T16:20:29;19.88;;;8.73;;
21233;SDS011;10774;42.178;26.578;2023-02-23T16:22:58;14.13;;;7.93;;
21233;SDS011;10774;42.178;26.578;2023-02-23T16:25:27;17.80;;;9.55;;
21233;SDS011;10774;42.178;26.578;2023-02-23T16:33:10;13.30;;;7.93;;
21233;SDS011;10774;42.178;26.578;2023-02-23T16:35:47;15.73;;;8.82;;
21233;SDS011;10774;42.178;26.578;2023-02-23T16:38:25;12.70;;;6.13;;
21233;SDS011;10774;42.178;26.578;2023-02-23T16:41:19;12.52;;;7.10;;
21233;SDS011;10774;42.178;26.578;2023-02-23T16:43:49;18.40;;;8.30;;
21233;SDS011;10774;42.178;26.578;2023-02-23T16:46:16;12.75;;;7.25;;
21233;SDS011;10774;42.178;26.578;2023-02-23T16:48:42;15.40;;;8.30;;
21233;SDS011;10774;42.178;26.578;2023-02-23T16:51:12;18.38;;;8.70;;
21233;SDS011;10774;42.178;26.578;2023-02-23T16:53:38;17.17;;;8.77;;
21233;SDS011;10774;42.178;26.578;2023-02-23T16:56:04;14.73;;;8.05;;
21233;SDS011;10774;42.178;26.578;2023-02-23T16:58:36;18.98;;;7.75;;
21233;SDS011;10774;42.178;26.578;2023-02-23T17:01:03;16.17;;;8.18;;
21233;SDS011;10774;42.178;26.578;2023-02-23T17:03:29;17.50;;;8.25;;
21233;SDS011;10774;42.178;26.578;2023-02-23T17:05:55;18.10;;;9.43;;
21233;SDS011;10774;42.178;26.578;2023-02-23T17:08:21;17.63;;;7.93;;
21233;SDS011;10774;42.178;26.578;2023-02-23T17:10:48;12.80;;;7.50;;
21233;SDS011;10774;42.178;26.578;2023-02-23T17:13:20;12.52;;;7.32;;
21233;SDS011;10774;42.178;26.578;2023-02-23T17:15:47;16.30;;;7.47;;
21233;SDS011;10774;42.178;26.578;2023-02-23T17:18:18;13.32;;;6.50;;